createdAt,value
2023-04-07T00:00:37.267Z,99357.97
2023-04-07T00:03:07.317Z,99355.44
2023-04-07T00:05:36.237Z,99348.72
2023-04-07T00:08:04.843Z,99346.22
2023-04-07T00:10:33.553Z,99348.88
2023-04-07T00:13:03.773Z,99346.31
2023-04-07T00:15:32.605Z,99348.97
2023-04-07T00:18:01.366Z,99348.16
2023-04-07T00:20:30.066Z,99343.88
2023-04-07T00:22:58.657Z,99349.81
2023-04-07T00:25:27.436Z,99337.97
2023-04-07T00:27:56.047Z,99343.06
2023-04-07T00:30:26.712Z,99334.56
2023-04-07T00:32:55.531Z,99326.13
2023-04-07T00:35:24.212Z,99327.88
2023-04-07T00:37:52.907Z,99321.00
2023-04-07T00:40:21.641Z,99318.47
2023-04-07T00:42:50.413Z,99315.91
2023-04-07T00:45:19.075Z,99314.28
2023-04-07T00:47:49.220Z,99310.00
2023-04-07T00:50:17.948Z,99304.91
2023-04-07T00:52:47.262Z,99296.31
2023-04-07T00:55:16.026Z,99294.59
2023-04-07T00:57:46.707Z,99297.97
2023-04-07T01:00:17.139Z,99283.56
2023-04-07T01:02:57.328Z,99284.41
2023-04-07T01:05:40.389Z,99275.09
2023-04-07T01:08:16.597Z,99280.22
2023-04-07T01:10:55.799Z,99280.22
2023-04-07T01:13:32.687Z,99271.75
2023-04-07T01:16:14.984Z,99268.34
2023-04-07T01:18:56.028Z,99270.91
2023-04-07T01:21:29.186Z,99263.25
2023-04-07T01:24:20.110Z,99266.75
2023-04-07T01:26:50.771Z,99266.75
2023-04-07T01:29:35.681Z,99260.81
2023-04-07T01:32:08.460Z,99264.28
2023-04-07T01:34:39.789Z,99267.66
2023-04-07T01:37:09.727Z,99260.91
2023-04-07T01:39:57.164Z,99263.47
2023-04-07T01:42:27.857Z,99256.72
2023-04-07T01:44:58.984Z,99260.09
2023-04-07T01:47:31.018Z,99258.47
2023-04-07T01:50:00.806Z,99255.00
2023-04-07T01:52:30.577Z,99259.25
2023-04-07T01:54:59.315Z,99250.72
2023-04-07T01:57:28.374Z,99250.81
2023-04-07T02:00:04.624Z,99250.00
2023-04-07T02:02:46.770Z,99250.00
2023-04-07T02:05:20.748Z,99251.72
2023-04-07T02:07:55.398Z,99243.25
2023-04-07T02:10:28.510Z,99244.91
2023-04-07T02:13:01.622Z,99247.44
2023-04-07T02:15:32.922Z,99247.44
2023-04-07T02:18:02.786Z,99243.16
2023-04-07T02:20:32.951Z,99242.34
2023-04-07T02:23:01.671Z,99240.59
2023-04-07T02:25:32.495Z,99239.81
2023-04-07T02:28:02.493Z,99242.34
2023-04-07T02:30:33.110Z,99237.25
2023-04-07T02:33:01.781Z,99233.06
2023-04-07T02:35:30.483Z,99231.41
2023-04-07T02:37:59.131Z,99225.41
2023-04-07T02:40:28.652Z,99222.03
2023-04-07T02:42:57.300Z,99223.75
2023-04-07T02:45:26.546Z,99224.66
2023-04-07T02:47:56.575Z,99223.75
2023-04-07T02:50:26.161Z,99223.75
2023-04-07T02:52:54.983Z,99215.22
2023-04-07T02:55:23.848Z,99217.75
2023-04-07T02:57:52.768Z,99213.47
2023-04-07T03:00:35.642Z,99211.75
2023-04-07T03:03:15.161Z,99207.56
2023-04-07T03:05:50.962Z,99207.56
2023-04-07T03:08:19.618Z,99203.25
2023-04-07T03:10:48.675Z,99207.56
2023-04-07T03:13:19.770Z,99207.56
2023-04-07T03:15:48.587Z,99209.19
2023-04-07T03:18:20.072Z,99202.44
2023-04-07T03:20:49.972Z,99205.72
2023-04-07T03:23:19.580Z,99210.09
2023-04-07T03:25:48.705Z,99205.81
2023-04-07T03:28:18.085Z,99213.34
2023-04-07T03:30:46.822Z,99194.59
2023-04-07T03:33:15.514Z,99201.44
2023-04-07T03:35:45.601Z,99203.16
2023-04-07T03:38:14.312Z,99212.44
2023-04-07T03:40:44.926Z,99206.53
2023-04-07T03:43:15.819Z,99205.72
2023-04-07T03:45:46.614Z,99193.78
2023-04-07T03:48:15.594Z,99182.84
2023-04-07T03:50:57.052Z,99193.06
2023-04-07T03:53:25.716Z,99182.06
2023-04-07T03:55:55.473Z,99182.06
2023-04-07T03:58:42.679Z,99185.41
2023-04-07T04:01:16.225Z,99194.81
2023-04-07T04:03:48.359Z,99185.31
2023-04-07T04:06:27.173Z,99198.06
2023-04-07T04:09:02.037Z,99199.81
2023-04-07T04:11:33.059Z,99186.16
2023-04-07T04:14:06.566Z,99189.50
2023-04-07T04:16:37.659Z,99187.84
2023-04-07T04:19:12.875Z,99192.97
2023-04-07T04:21:42.930Z,99187.84
2023-04-07T04:24:12.221Z,99200.59
2023-04-07T04:26:41.460Z,99199.81
2023-04-07T04:29:14.037Z,99204.00
2023-04-07T04:31:45.066Z,99202.25
2023-04-07T04:34:14.046Z,99192.84
2023-04-07T04:36:45.828Z,99203.91
2023-04-07T04:39:14.443Z,99196.94
2023-04-07T04:41:43.257Z,99196.94
2023-04-07T04:44:13.477Z,99191.84
2023-04-07T04:46:43.930Z,99203.00
2023-04-07T04:49:12.671Z,99186.84
2023-04-07T04:51:41.942Z,99199.69
2023-04-07T04:54:19.658Z,99191.34
2023-04-07T04:56:48.592Z,99202.44
2023-04-07T04:59:17.712Z,99203.47
2023-04-07T05:01:58.381Z,99204.38
2023-04-07T05:04:28.466Z,99201.00
2023-04-07T05:07:08.283Z,99196.72
2023-04-07T05:09:39.186Z,99206.81
2023-04-07T05:12:08.519Z,99209.38
2023-04-07T05:14:42.946Z,99204.16
2023-04-07T05:17:11.919Z,99201.53
2023-04-07T05:19:40.872Z,99197.34
2023-04-07T05:22:16.819Z,99200.00
2023-04-07T05:24:49.942Z,99198.25
2023-04-07T05:27:19.842Z,99199.28
2023-04-07T05:29:53.048Z,99198.47
2023-04-07T05:32:29.580Z,99201.19
2023-04-07T05:35:00.222Z,99203.84
2023-04-07T05:37:33.769Z,99203.03
2023-04-07T05:40:08.998Z,99197.81
2023-04-07T05:42:37.730Z,99196.09
2023-04-07T05:45:07.786Z,99207.13
2023-04-07T05:47:38.405Z,99204.47
2023-04-07T05:50:08.359Z,99207.81
2023-04-07T05:52:37.788Z,99209.47
2023-04-07T05:55:20.076Z,99210.31
2023-04-07T05:57:49.605Z,99206.81
2023-04-07T06:00:22.523Z,99209.38
2023-04-07T06:03:02.027Z,99210.22
2023-04-07T06:05:34.761Z,99208.47
2023-04-07T06:08:03.953Z,99211.00
2023-04-07T06:10:34.054Z,99205.00
2023-04-07T06:13:02.795Z,99210.00
2023-04-07T06:15:31.546Z,99206.66
2023-04-07T06:18:00.373Z,99206.66
2023-04-07T06:20:29.175Z,99203.25
2023-04-07T06:22:59.618Z,99210.09
2023-04-07T06:25:28.754Z,99208.34
2023-04-07T06:27:58.766Z,99201.53
2023-04-07T06:30:27.432Z,99200.59
2023-04-07T06:32:56.446Z,99191.16
2023-04-07T06:35:27.656Z,99192.78
2023-04-07T06:37:56.965Z,99199.41
2023-04-07T06:40:25.642Z,99207.06
2023-04-07T06:42:54.903Z,99206.97
2023-04-07T06:45:32.987Z,99198.38
2023-04-07T06:48:01.660Z,99206.78
2023-04-07T06:50:30.418Z,99208.41
2023-04-07T06:52:59.105Z,99204.94
2023-04-07T06:55:27.787Z,99201.47
2023-04-07T06:57:56.447Z,99199.75
2023-04-07T07:00:25.792Z,99201.25
2023-04-07T07:02:55.976Z,99202.91
2023-04-07T07:05:24.726Z,99201.09
2023-04-07T07:07:53.350Z,99209.44
2023-04-07T07:10:22.749Z,99211.78
2023-04-07T07:12:52.147Z,99216.84
2023-04-07T07:15:20.800Z,99214.97
2023-04-07T07:17:49.552Z,99217.31
2023-04-07T07:20:19.829Z,99213.75
2023-04-07T07:22:48.465Z,99215.41
2023-04-07T07:25:17.323Z,99211.09
2023-04-07T07:27:46.199Z,99214.41
2023-04-07T07:30:15.163Z,99212.53
2023-04-07T07:32:43.866Z,99215.03
2023-04-07T07:35:12.544Z,99207.16
2023-04-07T07:37:44.475Z,99209.50
2023-04-07T07:40:13.359Z,99207.69
2023-04-07T07:42:42.409Z,99211.69
2023-04-07T07:45:12.724Z,99217.28
2023-04-07T07:47:42.080Z,99217.09
2023-04-07T07:50:11.175Z,99215.13
2023-04-07T07:52:41.863Z,99223.44
2023-04-07T07:55:11.012Z,99215.56
2023-04-07T07:57:39.585Z,99223.03
2023-04-07T08:00:10.547Z,99221.19
2023-04-07T08:02:41.932Z,99219.38
2023-04-07T08:05:11.451Z,99214.84
2023-04-07T08:07:43.207Z,99218.94
2023-04-07T08:10:12.039Z,99218.72
2023-04-07T08:12:40.835Z,99221.78
2023-04-07T08:15:10.432Z,99218.22
2023-04-07T08:17:39.521Z,99223.97
2023-04-07T08:20:10.584Z,99229.75
2023-04-07T08:22:39.405Z,99231.41
2023-04-07T08:25:10.693Z,99238.16
2023-04-07T08:27:39.568Z,99245.66
2023-04-07T08:30:09.353Z,99247.41
2023-04-07T08:32:39.218Z,99249.84
2023-04-07T08:35:08.625Z,99249.00
2023-04-07T08:37:37.736Z,99248.19
2023-04-07T08:40:09.484Z,99250.84
2023-04-07T08:42:43.847Z,99248.19
2023-04-07T08:45:13.045Z,99247.50
2023-04-07T08:47:43.125Z,99247.50
2023-04-07T08:50:13.494Z,99256.78
2023-04-07T08:52:47.596Z,99249.84
2023-04-07T08:55:17.750Z,99252.19
2023-04-07T08:57:47.380Z,99258.03
2023-04-07T09:00:17.082Z,99255.34
2023-04-07T09:02:47.984Z,99260.25
2023-04-07T09:05:16.946Z,99255.88
2023-04-07T09:07:45.831Z,99258.31
2023-04-07T09:10:14.425Z,99263.09
2023-04-07T09:12:44.455Z,99262.81
2023-04-07T09:15:13.215Z,99267.59
2023-04-07T09:17:42.148Z,99264.72
2023-04-07T09:20:11.986Z,99272.28
2023-04-07T09:22:43.455Z,99272.22
2023-04-07T09:25:18.017Z,99276.38
2023-04-07T09:27:59.722Z,99278.03
2023-04-07T09:30:29.976Z,99282.13
2023-04-07T09:32:59.189Z,99279.44
2023-04-07T09:35:28.860Z,99273.31
2023-04-07T09:38:08.233Z,99274.13
2023-04-07T09:40:37.957Z,99272.28
2023-04-07T09:43:08.253Z,99273.00
2023-04-07T09:45:37.544Z,99274.63
2023-04-07T09:48:10.946Z,99277.00
2023-04-07T09:50:45.826Z,99272.59
2023-04-07T09:53:14.514Z,99270.66
2023-04-07T09:55:44.009Z,99277.38
2023-04-07T09:58:16.498Z,99273.91
2023-04-07T10:00:45.766Z,99273.78
2023-04-07T10:03:14.991Z,99276.25
2023-04-07T10:05:45.361Z,99271.63
2023-04-07T10:08:14.313Z,99279.97
2023-04-07T10:10:44.524Z,99264.28
2023-04-07T10:13:14.954Z,99273.94
2023-04-07T10:15:44.014Z,99272.03
2023-04-07T10:18:13.312Z,99256.81
2023-04-07T10:20:42.860Z,99257.19
2023-04-07T10:23:23.306Z,99268.03
2023-04-07T10:25:54.283Z,99262.94
2023-04-07T10:28:27.594Z,99261.88
2023-04-07T10:30:57.094Z,99259.94
2023-04-07T10:33:49.505Z,99275.19
2023-04-07T10:36:20.435Z,99267.38
2023-04-07T10:39:23.594Z,99263.19
2023-04-07T10:41:53.340Z,99270.97
2023-04-07T10:44:50.659Z,99261.88
2023-04-07T10:47:19.460Z,99267.25
2023-04-07T10:50:20.463Z,99271.75
2023-04-07T10:52:50.829Z,99268.59
2023-04-07T10:55:37.705Z,99278.25
2023-04-07T10:58:24.647Z,99275.09
2023-04-07T11:01:22.779Z,99268.56
2023-04-07T11:04:01.311Z,99283.22
2023-04-07T11:06:31.552Z,99280.84
2023-04-07T11:09:00.649Z,99273.28
2023-04-07T11:11:41.801Z,99278.66
2023-04-07T11:14:10.519Z,99283.03
2023-04-07T11:16:45.862Z,99281.44
2023-04-07T11:19:14.553Z,99274.78
2023-04-07T11:21:43.203Z,99284.19
2023-04-07T11:24:11.947Z,99278.25
2023-04-07T11:26:42.122Z,99282.66
2023-04-07T11:29:12.280Z,99283.50
2023-04-07T11:31:42.442Z,99291.97
2023-04-07T11:34:11.256Z,99284.41
2023-04-07T11:36:42.866Z,99289.53
2023-04-07T11:39:21.668Z,99281.84
2023-04-07T11:41:51.957Z,99292.81
2023-04-07T11:44:20.958Z,99288.59
2023-04-07T11:46:58.658Z,99291.16
2023-04-07T11:49:29.306Z,99288.59
2023-04-07T11:52:03.672Z,99292.81
2023-04-07T11:54:42.992Z,99295.38
2023-04-07T11:57:12.982Z,99299.53
2023-04-07T11:59:42.562Z,99297.09
2023-04-07T12:02:14.499Z,99296.16
2023-04-07T12:04:58.501Z,99291.97
2023-04-07T12:07:28.390Z,99297.09
2023-04-07T12:09:57.934Z,99292.81
2023-04-07T12:12:33.180Z,99295.38
2023-04-07T12:15:01.980Z,99304.66
2023-04-07T12:17:32.283Z,99296.88
2023-04-07T12:20:01.122Z,99294.31
2023-04-07T12:22:29.779Z,99296.78
2023-04-07T12:24:58.428Z,99291.66
2023-04-07T12:27:39.621Z,99300.94
2023-04-07T12:30:11.782Z,99302.59
2023-04-07T12:32:42.042Z,99296.56
2023-04-07T12:35:10.680Z,99302.38
2023-04-07T12:37:39.252Z,99305.75
2023-04-07T12:40:09.700Z,99298.78
2023-04-07T12:42:38.323Z,99302.88
2023-04-07T12:45:08.525Z,99304.41
2023-04-07T12:47:37.322Z,99309.41
2023-04-07T12:50:08.687Z,99310.13
2023-04-07T12:52:37.478Z,99316.78
2023-04-07T12:55:06.894Z,99309.09
2023-04-07T12:57:35.555Z,99315.81
2023-04-07T13:00:04.404Z,99313.16
2023-04-07T13:02:33.264Z,99314.78
2023-04-07T13:05:01.935Z,99317.25
2023-04-07T13:07:32.050Z,99307.84
2023-04-07T13:10:00.754Z,99318.06
2023-04-07T13:12:29.513Z,99311.19
2023-04-07T13:15:00.506Z,99312.03
2023-04-07T13:17:29.889Z,99316.19
2023-04-07T13:19:59.179Z,99313.66
2023-04-07T13:22:27.853Z,99320.53
2023-04-07T13:24:58.315Z,99328.09
2023-04-07T13:27:27.936Z,99329.84
2023-04-07T13:29:56.602Z,99329.00
2023-04-07T13:32:25.184Z,99327.41
2023-04-07T13:34:54.201Z,99326.56
2023-04-07T13:37:22.833Z,99332.59
2023-04-07T13:39:51.555Z,99328.50
2023-04-07T13:42:21.972Z,99334.59
2023-04-07T13:44:51.125Z,99328.75
2023-04-07T13:47:20.467Z,99334.78
2023-04-07T13:49:49.746Z,99332.31
2023-04-07T13:52:19.018Z,99336.66
2023-04-07T13:54:47.675Z,99323.97
2023-04-07T13:57:20.788Z,99325.69
2023-04-07T13:59:52.791Z,99324.06
2023-04-07T14:02:24.686Z,99334.31
2023-04-07T14:04:53.596Z,99334.44
2023-04-07T14:07:22.948Z,99331.03
2023-04-07T14:09:51.641Z,99320.78
2023-04-07T14:12:21.917Z,99329.38
2023-04-07T14:14:52.868Z,99329.38
2023-04-07T14:17:21.733Z,99327.78
2023-04-07T14:19:50.404Z,99334.50
2023-04-07T14:22:20.005Z,99327.78
2023-04-07T14:24:48.692Z,99332.06
2023-04-07T14:27:21.129Z,99331.25
2023-04-07T14:29:51.406Z,99331.25
2023-04-07T14:32:20.049Z,99325.28
2023-04-07T14:34:49.227Z,99322.72
2023-04-07T14:37:18.807Z,99322.72
2023-04-07T14:40:01.390Z,99319.38
2023-04-07T14:42:31.829Z,99329.59
2023-04-07T14:45:03.184Z,99327.97
2023-04-07T14:47:31.958Z,99323.81
2023-04-07T14:50:00.687Z,99324.59
2023-04-07T14:52:30.043Z,99325.53
2023-04-07T14:55:00.279Z,99323.88
2023-04-07T14:57:29.409Z,99332.50
2023-04-07T14:59:58.072Z,99316.44
2023-04-07T15:02:29.318Z,99321.66
2023-04-07T15:04:58.098Z,99324.22
2023-04-07T15:07:27.279Z,99328.41
2023-04-07T15:09:56.862Z,99330.25
2023-04-07T15:12:26.335Z,99334.69
2023-04-07T15:14:55.013Z,99333.03
2023-04-07T15:17:33.021Z,99341.50
2023-04-07T15:20:12.973Z,99340.94
2023-04-07T15:22:42.103Z,99338.38
2023-04-07T15:25:10.851Z,99343.59
2023-04-07T15:27:39.448Z,99353.00
2023-04-07T15:30:09.972Z,99348.72
2023-04-07T15:32:38.750Z,99351.31
2023-04-07T15:35:08.444Z,99339.47
2023-04-07T15:37:38.574Z,99354.00
2023-04-07T15:40:09.343Z,99354.09
2023-04-07T15:42:41.722Z,99349.09
2023-04-07T15:45:12.217Z,99359.34
2023-04-07T15:47:40.886Z,99350.84
2023-04-07T15:50:11.168Z,99351.66
2023-04-07T15:52:41.220Z,99358.53
2023-04-07T15:55:10.846Z,99370.38
2023-04-07T15:57:39.861Z,99359.34
2023-04-07T16:00:10.340Z,99367.81
2023-04-07T16:02:39.405Z,99370.38
2023-04-07T16:05:09.198Z,99368.78
2023-04-07T16:07:38.009Z,99377.34
2023-04-07T16:10:10.059Z,99379.91
2023-04-07T16:12:39.088Z,99374.91
2023-04-07T16:15:11.113Z,99381.75
2023-04-07T16:17:41.030Z,99381.06
2023-04-07T16:20:14.335Z,99380.13
2023-04-07T16:22:43.305Z,99382.81
2023-04-07T16:25:13.968Z,99385.38
2023-04-07T16:27:43.967Z,99382.88
2023-04-07T16:30:14.758Z,99381.28
2023-04-07T16:32:44.692Z,99384.75
2023-04-07T16:35:14.804Z,99394.16
2023-04-07T16:37:46.254Z,99386.56
2023-04-07T16:40:16.441Z,99389.13
2023-04-07T16:42:45.249Z,99399.47
2023-04-07T16:45:14.070Z,99400.38
2023-04-07T16:47:44.660Z,99401.22
2023-04-07T16:50:13.447Z,99408.06
2023-04-07T16:52:42.042Z,99404.69
2023-04-07T16:55:11.148Z,99411.56
2023-04-07T16:57:41.230Z,99415.03
2023-04-07T17:00:11.446Z,99414.25
2023-04-07T17:02:40.304Z,99416.88
2023-04-07T17:05:10.223Z,99430.50
2023-04-07T17:07:38.902Z,99426.31
2023-04-07T17:10:09.229Z,99425.50
2023-04-07T17:12:37.916Z,99428.97
2023-04-07T17:15:09.219Z,99436.63
2023-04-07T17:17:38.286Z,99439.31
2023-04-07T17:20:08.473Z,99435.91
2023-04-07T17:22:37.620Z,99445.34
2023-04-07T17:25:07.420Z,99443.69
2023-04-07T17:27:36.135Z,99444.59
2023-04-07T17:30:08.368Z,99448.22
2023-04-07T17:32:37.451Z,99449.22
2023-04-07T17:35:07.766Z,99455.38
2023-04-07T17:37:36.406Z,99453.94
2023-04-07T17:40:05.476Z,99456.59
2023-04-07T17:42:34.184Z,99456.59
2023-04-07T17:45:03.324Z,99459.25
2023-04-07T17:47:33.423Z,99477.22
2023-04-07T17:50:03.250Z,99475.63
2023-04-07T17:52:31.946Z,99473.97
2023-04-07T17:55:00.724Z,99483.28
2023-04-07T17:57:29.591Z,99489.31
2023-04-07T17:59:58.175Z,99485.13
2023-04-07T18:02:27.052Z,99488.47
2023-04-07T18:05:01.006Z,99488.47
2023-04-07T18:07:30.453Z,99494.66
2023-04-07T18:09:59.072Z,99494.53
2023-04-07T18:12:27.756Z,99497.19
2023-04-07T18:14:56.455Z,99505.78
2023-04-07T18:17:25.047Z,99505.88
2023-04-07T18:19:53.695Z,99503.59
2023-04-07T18:22:23.848Z,99507.28
2023-04-07T18:24:52.375Z,99510.97
2023-04-07T18:27:24.013Z,99520.47
2023-04-07T18:29:52.713Z,99516.47
2023-04-07T18:32:21.350Z,99523.41
2023-04-07T18:34:50.644Z,99526.88
2023-04-07T18:37:19.258Z,99532.94
2023-04-07T18:39:49.525Z,99532.19
2023-04-07T18:42:18.189Z,99537.41
2023-04-07T18:44:46.870Z,99544.28
2023-04-07T18:47:15.783Z,99546.09
2023-04-07T18:49:44.403Z,99549.56
2023-04-07T18:52:12.981Z,99548.75
2023-04-07T18:54:41.629Z,99551.41
2023-04-07T18:57:12.038Z,99554.88
2023-04-07T18:59:40.716Z,99556.63
2023-04-07T19:02:09.460Z,99556.63
2023-04-07T19:04:39.364Z,99564.28
2023-04-07T19:07:08.038Z,99564.28
2023-04-07T19:09:37.880Z,99566.19
2023-04-07T19:12:06.587Z,99569.66
2023-04-07T19:14:36.611Z,99576.63
2023-04-07T19:17:05.279Z,99578.44
2023-04-07T19:19:33.928Z,99576.78
2023-04-07T19:22:02.594Z,99577.72
2023-04-07T19:24:31.226Z,99581.19
2023-04-07T19:26:59.848Z,99589.75
2023-04-07T19:29:28.600Z,99594.88
2023-04-07T19:31:58.961Z,99598.34
2023-04-07T19:34:27.655Z,99596.63
2023-04-07T19:36:57.321Z,99598.34
2023-04-07T19:39:26.305Z,99598.44
2023-04-07T19:41:54.931Z,99597.63
2023-04-07T19:44:23.558Z,99599.38
2023-04-07T19:46:53.436Z,99603.66
2023-04-07T19:49:23.391Z,99605.50
2023-04-07T19:51:54.817Z,99616.63
2023-04-07T19:54:23.634Z,99609.06
2023-04-07T19:56:52.556Z,99614.25
2023-04-07T19:59:21.202Z,99615.25
2023-04-07T20:01:49.982Z,99615.38
2023-04-07T20:04:18.822Z,99617.25
2023-04-07T20:06:48.787Z,99618.25
2023-04-07T20:09:17.502Z,99618.44
2023-04-07T20:11:46.467Z,99615.22
2023-04-07T20:14:15.118Z,99620.53
2023-04-07T20:16:43.975Z,99617.34
2023-04-07T20:19:12.621Z,99617.44
2023-04-07T20:21:41.327Z,99628.66
2023-04-07T20:24:11.999Z,99628.75
2023-04-07T20:26:40.606Z,99632.28
2023-04-07T20:29:09.279Z,99630.66
2023-04-07T20:31:37.943Z,99632.38
2023-04-07T20:34:06.841Z,99631.50
2023-04-07T20:36:35.464Z,99623.91
2023-04-07T20:39:04.206Z,99623.00
2023-04-07T20:41:34.254Z,99623.91
2023-04-07T20:44:03.279Z,99617.16
2023-04-07T20:46:33.711Z,99619.72
2023-04-07T20:49:02.606Z,99627.38
2023-04-07T20:51:31.319Z,99626.63
2023-04-07T20:53:59.938Z,99628.28
2023-04-07T20:56:29.217Z,99625.03
2023-04-07T20:58:59.233Z,99627.56
2023-04-07T21:01:28.184Z,99635.28
2023-04-07T21:03:56.958Z,99623.47
2023-04-07T21:06:26.089Z,99636.22
2023-04-07T21:08:54.752Z,99635.47
2023-04-07T21:11:23.359Z,99639.78
2023-04-07T21:13:51.940Z,99639.03
2023-04-07T21:16:21.975Z,99639.13
2023-04-07T21:18:50.836Z,99636.66
2023-04-07T21:21:19.875Z,99643.53
2023-04-07T21:23:48.523Z,99647.78
2023-04-07T21:26:17.265Z,99640.13
2023-04-07T21:28:45.869Z,99642.69
2023-04-07T21:31:24.011Z,99642.69
2023-04-07T21:33:53.632Z,99641.03
2023-04-07T21:36:22.273Z,99642.69
2023-04-07T21:38:52.017Z,99632.47
2023-04-07T21:41:21.105Z,99639.41
2023-04-07T21:43:49.685Z,99646.13
2023-04-07T21:46:19.193Z,99638.56
2023-04-07T21:48:49.633Z,99651.44
2023-04-07T21:51:18.439Z,99638.84
2023-04-07T21:53:47.142Z,99643.31
2023-04-07T21:56:15.786Z,99651.06
2023-04-07T21:58:46.522Z,99651.16
2023-04-07T22:01:15.492Z,99658.00
2023-04-07T22:03:44.775Z,99654.78
2023-04-07T22:06:15.533Z,99653.13
2023-04-07T22:08:48.851Z,99654.13
2023-04-07T22:11:29.052Z,99660.19
2023-04-07T22:13:57.666Z,99657.69
2023-04-07T22:16:26.364Z,99663.72
2023-04-07T22:18:55.115Z,99664.53
2023-04-07T22:21:25.395Z,99661.06
2023-04-07T22:23:54.151Z,99654.22
2023-04-07T22:26:22.920Z,99664.34
2023-04-07T22:28:51.771Z,99666.91
2023-04-07T22:31:20.672Z,99671.09
2023-04-07T22:33:49.297Z,99667.66
2023-04-07T22:36:17.967Z,99673.56
2023-04-07T22:38:48.253Z,99668.47
2023-04-07T22:41:17.104Z,99672.75
2023-04-07T22:43:45.795Z,99675.31
2023-04-07T22:46:15.893Z,99677.84
2023-04-07T22:48:44.532Z,99676.03
2023-04-07T22:51:15.817Z,99678.66
2023-04-07T22:53:44.428Z,99676.13
2023-04-07T22:56:14.435Z,99676.19
2023-04-07T22:58:43.014Z,99682.13
2023-04-07T23:01:11.989Z,99673.66
2023-04-07T23:03:40.831Z,99680.50
2023-04-07T23:06:09.545Z,99678.03
2023-04-07T23:08:38.232Z,99686.50
2023-04-07T23:11:10.505Z,99689.16
2023-04-07T23:13:40.491Z,99684.94
2023-04-07T23:16:12.939Z,99692.50
2023-04-07T23:18:41.807Z,99686.59
2023-04-07T23:21:10.732Z,99686.59
2023-04-07T23:23:39.714Z,99684.75
2023-04-07T23:26:08.355Z,99696.72
2023-04-07T23:28:37.020Z,99694.97
2023-04-07T23:31:07.428Z,99700.06
2023-04-07T23:33:36.131Z,99695.81
2023-04-07T23:36:05.130Z,99699.19
2023-04-07T23:38:33.821Z,99694.88
2023-04-07T23:41:03.178Z,99701.53
2023-04-07T23:43:31.845Z,99706.66
2023-04-07T23:46:00.495Z,99704.03
2023-04-07T23:48:31.405Z,99702.28
2023-04-07T23:51:00.898Z,99704.03
2023-04-07T23:53:29.655Z,99695.53
2023-04-07T23:55:58.486Z,99703.19
2023-04-07T23:58:27.169Z,99704.03
